Time;durP1;ratioP1;P1;durP2;ratioP2;P2;SDS_P1;SDS_P2;PMS_P1;PMS_P2;Temp;Humidity;BMP_temperature;BMP_pressure;BME280_temperature;BME280_humidity;BME280_pressure;Samples;Min_cycle;Max_cycle;Signal;HPM_P1;HPM_P2
2022/06/17 08:21:31;;;;;;;7.20;2.30;;;24.40;61.60;;;;;;5900649;23;20020;-78
2022/06/17 08:23:57;;;;;;;5.43;2.10;;;24.10;61.70;;;;;;4918307;29;20071;-78
2022/06/17 08:26:23;;;;;;;5.68;2.20;;;24.10;62.00;;;;;;4919025;29;20075;-77
2022/06/17 08:28:48;;;;;;;5.10;2.40;;;24.20;62.20;;;;;;4927939;29;20095;-77
2022/06/17 08:31:14;;;;;;;4.32;2.28;;;24.30;62.50;;;;;;4912232;29;20040;-77
2022/06/17 08:33:40;;;;;;;9.10;2.13;;;24.30;62.00;;;;;;4908635;29;20036;-77
2022/06/17 08:36:10;;;;;;;6.10;2.13;;;24.50;61.60;;;;;;4908396;29;20087;-77
2022/06/17 08:38:41;;;;;;;5.25;2.28;;;24.50;61.30;;;;;;4914219;29;20039;-77
2022/06/17 08:41:25;;;;;;;3.58;2.00;;;24.40;61.00;;;;;;4926907;29;20035;-78
2022/06/17 08:43:51;;;;;;;4.35;2.22;;;24.50;60.80;;;;;;4927465;29;20063;-78
2022/06/17 08:46:46;;;;;;;5.13;2.35;;;24.70;61.20;;;;;;4926797;29;20055;-79
2022/06/17 08:49:48;;;;;;;3.85;2.00;;;24.80;59.00;;;;;;4926094;29;20306;-76
2022/06/17 08:52:20;;;;;;;3.38;2.20;;;24.80;59.50;;;;;;4926922;29;20278;-77
2022/06/17 08:55:06;;;;;;;4.10;2.17;;;24.70;59.40;;;;;;4927255;29;20329;-79
2022/06/17 08:57:54;;;;;;;3.55;1.70;;;24.70;57.80;;;;;;4908377;29;20105;-78
2022/06/17 09:00:39;;;;;;;3.10;1.50;;;24.70;58.50;;;;;;4907912;29;20061;-79
2022/06/17 09:03:41;;;;;;;3.75;1.83;;;24.70;58.50;;;;;;4907586;29;20036;-78
2022/06/17 09:06:23;;;;;;;4.50;1.88;;;24.80;57.90;;;;;;4907875;29;20033;-78
2022/06/17 09:09:26;;;;;;;5.88;2.08;;;25.00;57.60;;;;;;4908196;29;20044;-77
2022/06/17 09:11:55;;;;;;;3.42;1.52;;;25.30;58.70;;;;;;4908350;29;20048;-77
2022/06/17 09:14:36;;;;;;;2.83;1.50;;;25.40;57.70;;;;;;4908526;29;20080;-77
2022/06/17 09:17:01;;;;;;;2.65;1.70;;;25.30;55.80;;;;;;4913132;29;20143;-76
2022/06/17 09:19:31;;;;;;;8.27;1.80;;;25.40;56.60;;;;;;4917103;29;20042;-76
2022/06/17 09:22:06;;;;;;;6.15;1.60;;;25.60;56.60;;;;;;4911994;29;20322;-78
2022/06/17 09:24:39;;;;;;;6.32;1.60;;;25.60;56.20;;;;;;4909092;29;20071;-77
2022/06/17 09:27:10;;;;;;;3.75;1.60;;;25.60;56.00;;;;;;4907076;29;20216;-79
2022/06/17 09:29:46;;;;;;;3.45;1.30;;;25.50;55.20;;;;;;4907567;29;20136;-79
2022/06/17 09:32:36;;;;;;;6.20;1.70;;;25.50;55.30;;;;;;4906691;29;20271;-78
2022/06/17 09:35:24;;;;;;;3.47;1.42;;;25.50;55.40;;;;;;4907090;29;20036;-78
2022/06/17 09:38:24;;;;;;;3.20;1.58;;;25.50;55.70;;;;;;4907939;29;20028;-78
2022/06/17 09:40:55;;;;;;;4.70;1.70;;;25.60;56.10;;;;;;4907946;29;20029;-79
2022/06/17 09:43:39;;;;;;;3.72;2.13;;;25.80;55.70;;;;;;4906930;29;20029;-79
2022/06/17 09:46:35;;;;;;;3.28;1.70;;;25.80;55.50;;;;;;4906534;29;20303;-79
2022/06/17 09:49:18;;;;;;;2.97;1.95;;;25.80;55.20;;;;;;4906783;29;20033;-79
2022/06/17 09:52:08;;;;;;;3.95;1.83;;;25.70;56.00;;;;;;4907462;29;20037;-79
2022/06/17 09:54:41;;;;;;;3.05;1.45;;;25.80;55.30;;;;;;4907213;29;20050;-79
2022/06/17 09:57:21;;;;;;;4.47;1.52;;;25.90;55.60;;;;;;4892923;29;20052;-77
2022/06/17 09:59:56;;;;;;;3.58;1.10;;;26.20;55.60;;;;;;4888616;29;20311;-77
2022/06/17 10:02:27;;;;;;;2.80;1.42;;;26.20;55.30;;;;;;4887671;29;20060;-78
2022/06/17 10:04:55;;;;;;;3.42;1.70;;;26.30;55.10;;;;;;4888433;29;20104;-75
2022/06/17 10:07:40;;;;;;;4.00;1.20;;;26.50;55.40;;;;;;4887879;29;20032;-79
2022/06/17 10:10:17;;;;;;;3.40;1.20;;;26.50;54.80;;;;;;4888172;29;20036;-76
2022/06/17 10:12:57;;;;;;;3.00;1.42;;;26.50;54.80;;;;;;4888485;29;20223;-78
2022/06/17 10:18:46;;;;;;;3.55;1.40;;;26.80;55.20;;;;;;4903134;29;20105;-78
2022/06/17 10:21:37;;;;;;;2.85;1.50;;;26.80;53.60;;;;;;4887605;29;20044;-78
2022/06/17 10:24:30;;;;;;;2.80;1.20;;;26.70;53.50;;;;;;4904791;29;20103;-78
2022/06/17 10:27:25;;;;;;;3.20;1.23;;;26.70;53.00;;;;;;4907157;29;20036;-78
2022/06/17 10:30:07;;;;;;;4.75;1.63;;;26.80;52.90;;;;;;4906816;29;20039;-78
2022/06/17 10:32:37;;;;;;;4.50;1.30;;;27.00;53.10;;;;;;4906893;29;20048;-79
2022/06/17 10:35:06;;;;;;;3.55;1.35;;;27.10;52.20;;;;;;4906320;29;20222;-78
2022/06/17 10:37:35;;;;;;;3.17;1.45;;;27.20;53.00;;;;;;4906603;29;20037;-78
2022/06/17 10:40:02;;;;;;;4.28;1.20;;;27.50;52.80;;;;;;4908564;29;20028;-80
2022/06/17 10:42:29;;;;;;;2.53;1.33;;;27.40;51.70;;;;;;4910832;29;20092;-80
2022/06/17 10:44:59;;;;;;;2.97;1.40;;;27.20;52.70;;;;;;4910619;29;20048;-79
2022/06/17 10:47:40;;;;;;;2.88;1.50;;;27.10;51.90;;;;;;4909964;29;20040;-78
2022/06/17 10:50:17;;;;;;;2.75;1.05;;;27.20;51.50;;;;;;4909933;29;20033;-78
2022/06/17 10:52:49;;;;;;;4.20;1.70;;;27.30;51.50;;;;;;4910779;29;20041;-78
2022/06/17 10:55:20;;;;;;;3.95;1.00;;;27.20;50.90;;;;;;4909995;29;20036;-79
2022/06/17 10:58:10;;;;;;;2.85;1.17;;;27.30;51.00;;;;;;4910502;29;20040;-79
2022/06/17 11:00:54;;;;;;;3.08;1.17;;;27.60;51.00;;;;;;4910215;29;20036;-79
2022/06/17 11:03:31;;;;;;;2.90;1.10;;;27.90;51.00;;;;;;4909976;29;20033;-76
2022/06/17 11:06:05;;;;;;;3.80;1.10;;;28.10;50.90;;;;;;4910702;29;20057;-77
2022/06/17 11:08:39;;;;;;;2.33;1.05;;;28.30;49.80;;;;;;4910410;29;20248;-77
2022/06/17 11:13:55;;;;;;;3.15;1.02;;;28.50;49.10;;;;;;4910295;29;20259;-78
2022/06/17 11:16:24;;;;;;;1.90;0.80;;;28.60;47.70;;;;;;4909224;29;20052;-79
2022/06/17 11:19:06;;;;;;;1.90;1.00;;;28.80;47.30;;;;;;4909997;29;20044;-78
2022/06/17 11:21:40;;;;;;;3.33;1.25;;;28.90;47.50;;;;;;4909962;29;20040;-79
2022/06/17 11:24:09;;;;;;;2.70;1.20;;;29.00;47.50;;;;;;4909206;29;20150;-79
2022/06/17 11:26:37;;;;;;;2.13;1.02;;;29.20;48.00;;;;;;4908682;29;20036;-78
2022/06/17 11:29:21;;;;;;;2.35;1.05;;;29.30;47.00;;;;;;4908784;29;20353;-78
2022/06/17 11:31:49;;;;;;;3.03;0.85;;;29.10;47.40;;;;;;4909422;29;20230;-77
2022/06/17 11:34:24;;;;;;;3.60;1.20;;;29.60;47.90;;;;;;4909290;29;20071;-78
2022/06/17 11:36:58;;;;;;;2.00;0.90;;;30.10;47.00;;;;;;4909898;29;20179;-77
2022/06/17 11:39:33;;;;;;;2.80;0.80;;;30.70;46.50;;;;;;4907993;29;20322;-77
2022/06/17 11:42:01;;;;;;;2.00;0.93;;;31.20;43.40;;;;;;4909659;29;20080;-78
2022/06/17 11:44:27;;;;;;;1.77;0.80;;;31.80;43.10;;;;;;4908023;29;20043;-78
2022/06/17 11:47:03;;;;;;;1.75;0.85;;;32.40;42.60;;;;;;4908018;29;20145;-78
2022/06/17 11:49:35;;;;;;;2.00;0.90;;;32.90;44.00;;;;;;4909489;29;20088;-78
2022/06/17 11:52:06;;;;;;;3.25;1.13;;;33.40;44.50;;;;;;4908848;29;20036;-78
2022/06/17 11:54:49;;;;;;;1.77;1.00;;;33.90;44.10;;;;;;4909422;29;20043;-78
2022/06/17 11:57:24;;;;;;;2.50;0.80;;;34.40;43.40;;;;;;4908675;29;20308;-78
2022/06/17 11:59:54;;;;;;;1.83;0.68;;;35.40;42.40;;;;;;4909643;29;20032;-77
2022/06/17 12:02:20;;;;;;;1.00;0.50;;;36.00;42.00;;;;;;4908393;29;20275;-76
2022/06/17 12:05:05;;;;;;;1.67;0.65;;;36.70;42.00;;;;;;4909009;29;20088;-77
2022/06/17 12:07:35;;;;;;;2.30;0.65;;;37.40;41.00;;;;;;4909191;29;20411;-77
2022/06/17 12:10:32;;;;;;;3.40;0.70;;;38.20;40.30;;;;;;4909341;29;20036;-79
2022/06/17 12:13:39;;;;;;;1.83;0.70;;;38.80;40.20;;;;;;4908813;29;20092;-77
2022/06/17 12:16:16;;;;;;;3.08;0.63;;;39.40;39.40;;;;;;4906450;29;20103;-79
2022/06/17 12:18:46;;;;;;;2.75;0.60;;;40.00;38.80;;;;;;4907041;29;20044;-78
2022/06/17 12:21:29;;;;;;;1.85;0.52;;;40.30;38.10;;;;;;4906380;29;20133;-77
2022/06/17 12:24:17;;;;;;;1.35;0.40;;;40.60;38.00;;;;;;4906582;29;20053;-77
2022/06/17 12:26:56;;;;;;;3.08;0.70;;;40.90;37.90;;;;;;4906970;29;20044;-79
2022/06/17 12:29:39;;;;;;;2.00;0.40;;;41.30;37.10;;;;;;4906316;29;20051;-78
2022/06/17 12:32:14;;;;;;;1.38;0.50;;;41.50;37.10;;;;;;4906289;29;20045;-78
2022/06/17 12:34:46;;;;;;;1.80;0.60;;;42.10;37.10;;;;;;4906960;29;20028;-79
2022/06/17 12:37:29;;;;;;;1.58;0.50;;;42.60;36.30;;;;;;4906120;29;20369;-78
2022/06/17 12:40:22;;;;;;;0.95;0.40;;;42.50;36.00;;;;;;4906741;29;20100;-78
2022/06/17 12:42:48;;;;;;;1.60;0.50;;;42.50;36.00;;;;;;4891081;29;20044;-78
2022/06/17 12:45:38;;;;;;;1.27;0.40;;;42.80;36.20;;;;;;4905343;29;20052;-78
2022/06/17 12:48:13;;;;;;;1.45;0.40;;;42.80;35.70;;;;;;4906684;29;20222;-78
2022/06/17 12:53:55;;;;;;;1.52;0.55;;;44.20;35.30;;;;;;4907679;29;20073;-77
2022/06/17 12:56:40;;;;;;;1.65;0.40;;;45.10;34.80;;;;;;4907650;29;20048;-78
2022/06/17 12:59:29;;;;;;;1.20;0.40;;;45.90;34.80;;;;;;4908438;29;20059;-76
2022/06/17 13:02:12;;;;;;;2.95;0.50;;;46.80;34.80;;;;;;4907566;29;20047;-77
2022/06/17 13:05:00;;;;;;;1.20;0.35;;;46.10;34.30;;;;;;4907773;29;20318;-78
2022/06/17 13:07:35;;;;;;;1.30;0.45;;;45.10;34.00;;;;;;4907833;29;20043;-78
2022/06/17 13:13:17;;;;;;;;;;;45.30;34.40;;;;;;4908498;29;20032;-77
2022/06/17 13:15:55;;;;;;;1.85;0.50;;;46.80;34.40;;;;;;4886496;29;19931;-77
2022/06/17 13:18:28;;;;;;;1.67;0.30;;;46.50;33.60;;;;;;4906864;29;20187;-77
2022/06/17 13:21:04;;;;;;;2.15;0.43;;;46.20;33.90;;;;;;4908065;29;20056;-76
2022/06/17 13:23:54;;;;;;;2.15;0.50;;;47.30;33.70;;;;;;4906881;29;20421;-78
2022/06/17 13:26:27;;;;;;;1.30;0.60;;;46.80;33.40;;;;;;4907130;29;20029;-78
2022/06/17 13:29:01;;;;;;;1.23;0.50;;;46.40;33.60;;;;;;4907703;29;20028;-76
2022/06/17 13:31:55;;;;;;;2.08;0.43;;;46.10;33.30;;;;;;4906609;29;20051;-78
2022/06/17 13:34:44;;;;;;;2.38;0.57;;;46.10;34.00;;;;;;4907244;29;20020;-77
2022/06/17 13:37:19;;;;;;;1.45;0.40;;;47.30;32.80;;;;;;4907236;29;20049;-77
2022/06/17 13:39:59;;;;;;;0.68;0.30;;;48.10;32.50;;;;;;4907128;29;20032;-76
2022/06/17 13:42:25;;;;;;;1.60;0.45;;;47.90;32.90;;;;;;4906640;29;20032;-78
2022/06/17 13:45:19;;;;;;;1.50;0.40;;;48.90;32.40;;;;;;4907633;29;20226;-78
2022/06/17 13:48:00;;;;;;;1.38;0.50;;;48.90;32.60;;;;;;4907364;29;20045;-78
2022/06/17 13:50:44;;;;;;;2.40;0.35;;;48.80;33.20;;;;;;4912247;29;20037;-77
2022/06/17 13:53:48;;;;;;;1.05;0.40;;;49.50;32.80;;;;;;4914448;29;20064;-78
2022/06/17 13:56:20;;;;;;;1.10;0.50;;;49.60;32.70;;;;;;4913927;29;20048;-77
2022/06/17 13:58:50;;;;;;;1.48;0.30;;;49.10;32.40;;;;;;4908626;29;20035;-77
2022/06/17 14:01:18;;;;;;;0.65;0.35;;;50.20;32.50;;;;;;4906124;29;20215;-78
2022/06/17 14:03:59;;;;;;;1.15;0.40;;;50.60;31.30;;;;;;4907306;29;20048;-78
2022/06/17 14:06:46;;;;;;;2.47;0.60;;;51.10;31.00;;;;;;4906536;29;20214;-78
2022/06/17 14:09:25;;;;;;;3.33;0.60;;;50.90;30.90;;;;;;4907295;29;20060;-78
2022/06/17 14:11:50;;;;;;;1.88;0.50;;;51.30;31.50;;;;;;4906862;29;20322;-77
2022/06/17 14:14:19;;;;;;;0.77;0.30;;;51.20;31.00;;;;;;4904935;29;20149;-77
2022/06/17 14:17:06;;;;;;;1.98;0.38;;;49.50;30.90;;;;;;4906470;29;20223;-77
2022/06/17 14:19:38;;;;;;;1.75;0.40;;;50.50;31.30;;;;;;4905291;29;20068;-78
2022/06/17 14:22:05;;;;;;;2.45;0.70;;;50.30;31.90;;;;;;4906376;29;20104;-76
2022/06/17 14:24:43;;;;;;;2.45;0.52;;;50.30;32.30;;;;;;4905108;29;20040;-78
2022/06/17 14:27:32;;;;;;;0.95;0.30;;;50.10;31.90;;;;;;4905561;29;20048;-78
2022/06/17 14:30:16;;;;;;;0.70;0.20;;;49.80;31.50;;;;;;4906788;29;20028;-78
2022/06/17 14:32:46;;;;;;;1.42;0.63;;;49.30;31.60;;;;;;4906557;29;20048;-78
2022/06/17 14:35:24;;;;;;;1.88;0.40;;;49.80;31.40;;;;;;4906150;29;20034;-77
2022/06/17 14:38:05;;;;;;;0.93;0.30;;;50.00;32.00;;;;;;4906746;29;20047;-77
2022/06/17 14:42:01;;;;;;;0.90;0.30;;;50.60;31.60;;;;;;4906293;29;20322;-77
2022/06/17 14:43:23;;;;;;;1.80;0.40;;;51.20;31.00;;;;;;4906087;29;20048;-77
2022/06/17 14:45:57;;;;;;;1.15;0.35;;;51.10;30.90;;;;;;4906225;29;20112;-77
2022/06/17 14:48:31;;;;;;;2.20;0.50;;;50.10;31.50;;;;;;4906263;29;20025;-78
2022/06/17 14:51:17;;;;;;;1.23;0.28;;;50.90;31.30;;;;;;4906527;29;20028;-77
2022/06/17 14:53:49;;;;;;;1.88;0.50;;;49.20;31.00;;;;;;4906635;29;20036;-78
2022/06/17 14:56:15;;;;;;;1.80;0.40;;;49.90;30.90;;;;;;4906506;29;20055;-78
2022/06/17 14:58:54;;;;;;;1.87;0.37;;;50.30;31.30;;;;;;4905802;29;20052;-78
2022/06/17 15:01:36;;;;;;;1.33;0.40;;;50.80;31.40;;;;;;4905852;29;20492;-77
2022/06/17 15:04:13;;;;;;;1.15;0.30;;;51.40;31.40;;;;;;4907163;29;20357;-77
2022/06/17 15:06:43;;;;;;;1.00;0.40;;;51.70;31.70;;;;;;4905489;29;20040;-79
2022/06/17 15:09:29;;;;;;;1.38;0.45;;;51.50;31.10;;;;;;4906545;29;20024;-77
2022/06/17 15:12:24;;;;;;;2.53;0.40;;;50.60;30.70;;;;;;4906433;29;20093;-77
2022/06/17 15:15:00;;;;;;;2.13;0.60;;;50.80;32.00;;;;;;4904884;29;20055;-76
2022/06/17 15:18:08;;;;;;;1.58;0.40;;;51.10;31.00;;;;;;4888207;29;20044;-77
2022/06/17 15:20:38;;;;;;;2.17;0.50;;;51.40;30.40;;;;;;4905310;29;20041;-77
2022/06/17 15:23:28;;;;;;;0.65;0.30;;;51.50;30.70;;;;;;4905617;29;20061;-77
2022/06/17 15:26:20;;;;;;;1.23;0.30;;;51.70;30.40;;;;;;4907050;29;20052;-79
2022/06/17 15:28:50;;;;;;;1.52;0.40;;;51.70;30.60;;;;;;4908567;29;20112;-77
2022/06/17 15:31:26;;;;;;;4.47;0.88;;;52.10;30.50;;;;;;4908332;29;20108;-78
2022/06/17 15:33:55;;;;;;;1.33;0.50;;;52.50;30.40;;;;;;4908872;29;20104;-77
2022/06/17 15:36:40;;;;;;;1.58;0.40;;;52.70;31.00;;;;;;4909343;29;20036;-78
2022/06/17 15:39:38;;;;;;;1.13;0.40;;;52.40;30.60;;;;;;4909535;29;20024;-77
2022/06/17 15:42:23;;;;;;;1.00;0.30;;;52.00;30.70;;;;;;4909468;29;20110;-77
2022/06/17 15:45:16;;;;;;;0.63;0.30;;;51.60;30.50;;;;;;4909430;29;20032;-77
2022/06/17 15:47:56;;;;;;;1.40;0.65;;;51.70;30.70;;;;;;4908680;29;20067;-78
2022/06/17 15:50:24;;;;;;;0.98;0.50;;;52.00;30.90;;;;;;4908909;29;20040;-78
2022/06/17 15:52:51;;;;;;;2.00;0.40;;;51.90;30.90;;;;;;4909236;29;20044;-78
2022/06/17 15:55:26;;;;;;;0.80;0.32;;;51.80;31.10;;;;;;4908395;29;20191;-79
2022/06/17 15:57:52;;;;;;;1.23;0.30;;;51.50;30.30;;;;;;4909504;29;20037;-79
2022/06/17 16:00:32;;;;;;;0.90;0.40;;;52.00;31.10;;;;;;4908904;29;20047;-78
2022/06/17 16:03:29;;;;;;;0.80;0.43;;;51.30;30.90;;;;;;4909293;29;20144;-78
2022/06/17 16:06:04;;;;;;;0.60;0.30;;;51.30;31.00;;;;;;4909342;29;20046;-78
2022/06/17 16:08:42;;;;;;;1.35;0.40;;;51.30;31.50;;;;;;4907787;29;20039;-78
2022/06/17 16:11:11;;;;;;;0.90;0.40;;;50.80;30.80;;;;;;4908211;29;20033;-77
2022/06/17 16:13:41;;;;;;;0.93;0.30;;;50.50;30.90;;;;;;4908758;29;20029;-78
2022/06/17 16:16:29;;;;;;;1.77;0.50;;;50.60;30.90;;;;;;4908757;29;20056;-77
2022/06/17 16:19:14;;;;;;;1.27;0.40;;;50.30;30.40;;;;;;4908984;29;20208;-77
2022/06/17 16:21:46;;;;;;;0.90;0.50;;;50.50;30.80;;;;;;4906998;29;20039;-77
2022/06/17 16:24:32;;;;;;;1.42;0.50;;;50.60;31.00;;;;;;4907993;29;20087;-77
2022/06/17 16:27:02;;;;;;;2.05;0.57;;;50.70;31.50;;;;;;4908758;29;20051;-77
2022/06/17 16:29:38;;;;;;;1.63;0.40;;;50.90;31.10;;;;;;4907006;29;20044;-78
2022/06/17 16:32:20;;;;;;;1.02;0.40;;;51.10;30.40;;;;;;4908403;29;20068;-77
2022/06/17 16:34:46;;;;;;;1.48;0.30;;;51.20;30.60;;;;;;4908352;29;20031;-77
2022/06/17 16:37:20;;;;;;;0.88;0.52;;;51.10;30.40;;;;;;4908423;29;20281;-78
2022/06/17 16:39:47;;;;;;;1.02;0.30;;;51.10;30.60;;;;;;4907973;29;20099;-77
2022/06/17 16:45:22;;;;;;;0.80;0.30;;;50.90;30.70;;;;;;4907969;29;20032;-78
2022/06/17 16:47:53;;;;;;;0.77;0.30;;;50.40;30.80;;;;;;4908493;29;20040;-77
2022/06/17 16:50:20;;;;;;;1.50;0.25;;;50.30;31.00;;;;;;4907306;29;20036;-78
2022/06/17 16:52:46;;;;;;;;;;;50.00;30.80;;;;;;4908212;29;20068;-79
2022/06/17 16:55:20;;;;;;;;;;;48.80;30.90;;;;;;4909042;29;19982;-78
2022/06/17 16:57:45;;;;;;;1.10;0.40;;;48.30;31.20;;;;;;4907541;29;19920;-78
2022/06/17 17:00:19;;;;;;;0.88;0.40;;;47.70;31.30;;;;;;4907981;29;20218;-78
2022/06/17 17:02:44;;;;;;;1.00;0.30;;;47.90;31.70;;;;;;4907550;29;20099;-78
2022/06/17 17:05:11;;;;;;;4.15;0.30;;;47.20;32.30;;;;;;4907007;29;20037;-78
2022/06/17 17:07:38;;;;;;;0.97;0.40;;;46.50;32.00;;;;;;4907662;29;20012;-79
2022/06/17 17:10:05;;;;;;;3.08;0.35;;;46.20;32.00;;;;;;4906900;29;20055;-78
2022/06/17 17:12:31;;;;;;;0.75;0.30;;;46.30;32.60;;;;;;4907795;29;20033;-79
2022/06/17 17:14:56;;;;;;;1.85;0.40;;;46.50;32.10;;;;;;4908126;29;20108;-77
2022/06/17 17:17:22;;;;;;;1.17;0.40;;;46.10;32.30;;;;;;4908044;29;20048;-78
2022/06/17 17:19:50;;;;;;;1.13;0.50;;;46.40;32.60;;;;;;4908140;29;20067;-78
2022/06/17 17:22:23;;;;;;;;;;;46.20;32.30;;;;;;4908337;29;20068;-78
2022/06/17 17:24:55;;;;;;;0.90;0.40;;;45.70;32.40;;;;;;4907651;29;19911;-77
2022/06/17 17:27:21;;;;;;;1.25;0.50;;;44.90;32.70;;;;;;4908319;29;20104;-77
2022/06/17 17:29:47;;;;;;;0.70;0.30;;;44.50;32.90;;;;;;4907639;29;20318;-78
2022/06/17 17:32:13;;;;;;;1.23;0.30;;;44.00;33.00;;;;;;4908157;29;20071;-77
2022/06/17 17:34:43;;;;;;;1.00;0.40;;;43.60;33.50;;;;;;4907628;29;20028;-77
2022/06/17 17:37:13;;;;;;;1.83;0.70;;;43.80;34.00;;;;;;4907166;29;20041;-77
2022/06/17 17:39:39;;;;;;;2.25;0.70;;;43.70;34.20;;;;;;4907959;29;20036;-78
2022/06/17 17:42:06;;;;;;;3.15;0.80;;;43.90;33.70;;;;;;4908199;29;20103;-78
2022/06/17 17:44:32;;;;;;;2.13;0.60;;;43.30;34.80;;;;;;4908483;29;20306;-77
2022/06/17 17:46:58;;;;;;;1.65;0.60;;;42.50;34.90;;;;;;4907432;29;20060;-77
2022/06/17 17:49:23;;;;;;;4.75;1.30;;;43.00;35.10;;;;;;4906576;29;20032;-77
2022/06/17 17:51:51;;;;;;;1.55;0.60;;;42.00;35.20;;;;;;4907664;29;20095;-77
2022/06/17 17:54:17;;;;;;;1.85;0.70;;;41.70;35.80;;;;;;4908074;29;20036;-77
2022/06/17 17:56:44;;;;;;;3.40;0.70;;;41.30;35.70;;;;;;4907233;29;20040;-77
2022/06/17 17:59:20;;;;;;;2.60;1.10;;;40.60;36.50;;;;;;4908073;29;20267;-78
2022/06/17 18:01:46;;;;;;;2.67;0.80;;;40.10;36.90;;;;;;4907130;29;20107;-77
2022/06/17 18:04:19;;;;;;;1.83;0.80;;;39.90;37.70;;;;;;4907754;29;20025;-77
2022/06/17 18:06:45;;;;;;;2.30;0.80;;;40.10;37.40;;;;;;4907621;29;20060;-78
2022/06/17 18:09:11;;;;;;;1.38;0.60;;;40.30;37.30;;;;;;4907899;29;20032;-77
2022/06/17 18:11:40;;;;;;;1.70;0.77;;;39.70;37.20;;;;;;4907136;29;20028;-77
2022/06/17 18:14:10;;;;;;;1.65;0.85;;;39.40;37.40;;;;;;4907519;29;20314;-77
2022/06/17 18:16:36;;;;;;;1.70;0.90;;;39.10;37.90;;;;;;4906556;29;20365;-77
2022/06/17 18:19:02;;;;;;;1.50;0.63;;;38.50;38.90;;;;;;4907813;29;20096;-77
2022/06/17 18:21:28;;;;;;;2.95;0.80;;;38.40;38.50;;;;;;4907726;29;20250;-78
2022/06/17 18:23:55;;;;;;;2.50;1.13;;;37.60;39.10;;;;;;4907272;29;20056;-77
2022/06/17 18:26:28;;;;;;;3.05;1.05;;;37.10;39.70;;;;;;4907516;29;20088;-77
2022/06/17 18:28:55;;;;;;;2.25;0.90;;;37.20;39.80;;;;;;4911625;29;20032;-77
2022/06/17 18:31:22;;;;;;;1.73;0.95;;;37.20;39.90;;;;;;4907743;29;20044;-77
2022/06/17 18:33:51;;;;;;;3.80;1.30;;;36.50;40.10;;;;;;4907643;29;20032;-78
2022/06/17 18:36:17;;;;;;;1.80;1.10;;;35.80;40.50;;;;;;4907615;29;20467;-79
2022/06/17 18:38:45;;;;;;;2.03;0.80;;;35.10;41.50;;;;;;4907075;29;20036;-79
2022/06/17 18:43:59;;;;;;;2.33;1.10;;;34.10;42.50;;;;;;4907760;29;20129;-78
2022/06/17 18:46:26;;;;;;;1.33;0.80;;;33.70;43.00;;;;;;4905900;29;20083;-77
2022/06/17 18:48:52;;;;;;;2.35;1.00;;;33.20;43.30;;;;;;4906729;29;20041;-77
2022/06/17 18:51:18;;;;;;;2.75;1.15;;;32.90;43.50;;;;;;4907512;29;20312;-77
2022/06/17 18:53:44;;;;;;;1.70;1.08;;;32.60;44.30;;;;;;4905400;29;20108;-78
2022/06/17 18:56:10;;;;;;;2.08;1.05;;;32.30;44.20;;;;;;4906897;29;20068;-77
2022/06/17 18:58:36;;;;;;;2.25;1.20;;;32.00;44.80;;;;;;4905583;29;20279;-81
2022/06/17 19:01:06;;;;;;;2.70;1.38;;;31.70;45.40;;;;;;4908223;29;20059;-79
2022/06/17 19:03:35;;;;;;;2.17;1.33;;;31.30;45.90;;;;;;4909472;29;20075;-79
2022/06/17 19:06:02;;;;;;;3.10;1.38;;;31.10;47.00;;;;;;4909829;29;20040;-79
2022/06/17 19:19:34;;;;;;;4.70;2.40;;;30.20;48.80;;;;;;4910336;29;20327;-79
2022/06/17 19:22:02;;;;;;;2.40;1.42;;;29.90;48.60;;;;;;4910189;29;20057;-78
2022/06/17 19:24:28;;;;;;;2.85;1.67;;;29.60;49.10;;;;;;4910773;29;20055;-78
2022/06/17 19:26:54;;;;;;;3.97;1.30;;;29.40;49.70;;;;;;4909172;29;20310;-79
2022/06/17 19:29:23;;;;;;;2.40;1.50;;;29.10;50.10;;;;;;4910201;29;20032;-79
2022/06/17 19:31:51;;;;;;;3.03;1.63;;;28.90;50.30;;;;;;4909589;29;20063;-76
2022/06/17 19:34:26;;;;;;;5.45;2.00;;;28.80;50.70;;;;;;4910457;29;20036;-78
2022/06/17 19:36:54;;;;;;;3.22;1.92;;;28.80;50.90;;;;;;4909166;29;20327;-80
2022/06/17 19:39:20;;;;;;;4.15;2.00;;;28.70;51.10;;;;;;4910680;29;20017;-77
2022/06/17 19:41:49;;;;;;;3.38;1.90;;;28.70;51.00;;;;;;4909940;29;20039;-78
2022/06/17 19:44:20;;;;;;;4.97;1.98;;;28.50;51.30;;;;;;4910369;29;20071;-80
2022/06/17 19:46:55;;;;;;;4.18;2.20;;;28.30;51.80;;;;;;4909754;29;20047;-78
2022/06/17 19:49:27;;;;;;;3.97;2.15;;;28.10;52.40;;;;;;4911104;29;20035;-78
2022/06/17 19:51:53;;;;;;;3.97;2.40;;;27.90;52.70;;;;;;4909864;29;20279;-78
2022/06/17 19:54:21;;;;;;;3.25;2.10;;;27.70;52.70;;;;;;4910003;29;20037;-78
2022/06/17 19:56:47;;;;;;;4.57;2.80;;;27.60;52.90;;;;;;4908539;29;20044;-78
2022/06/17 19:59:16;;;;;;;3.75;2.40;;;27.50;53.10;;;;;;4910028;29;20153;-79
2022/06/17 20:01:44;;;;;;;;;;;27.30;53.40;;;;;;4909479;29;20271;-78
2022/06/17 20:04:35;;;;;;;3.78;1.85;;;27.20;53.70;;;;;;4908842;29;20180;-78
2022/06/17 20:07:02;;;;;;;5.32;2.38;;;27.10;53.90;;;;;;4909760;29;20140;-78
2022/06/17 20:09:29;;;;;;;6.03;2.38;;;27.00;54.40;;;;;;4909753;29;20032;-79
2022/06/17 20:11:56;;;;;;;6.10;2.47;;;26.80;55.00;;;;;;4909250;29;20020;-78
2022/06/17 20:14:25;;;;;;;5.80;2.92;;;26.60;55.70;;;;;;4910231;29;20055;-78
2022/06/17 20:16:53;;;;;;;5.45;2.83;;;26.30;56.00;;;;;;4908689;29;20096;-79
2022/06/17 20:19:20;;;;;;;5.93;2.78;;;26.20;56.60;;;;;;4910028;29;20037;-78
2022/06/17 20:21:48;;;;;;;7.78;3.03;;;26.00;57.20;;;;;;4908772;29;20301;-78
2022/06/17 20:24:15;;;;;;;8.53;2.90;;;25.80;57.50;;;;;;4909673;29;20040;-77
2022/06/17 20:26:43;;;;;;;6.28;3.33;;;25.70;57.90;;;;;;4908849;29;20247;-79
2022/06/17 20:29:21;;;;;;;7.53;3.03;;;25.60;58.50;;;;;;4908655;29;20024;-78
2022/06/17 20:31:50;;;;;;;8.13;3.17;;;25.60;58.80;;;;;;4908721;29;20068;-77
2022/06/17 20:34:17;;;;;;;7.60;3.45;;;25.50;58.90;;;;;;4909579;29;20047;-78
2022/06/17 20:36:43;;;;;;;4.95;3.35;;;25.40;59.00;;;;;;4908180;29;20051;-78
2022/06/17 20:39:17;;;;;;;7.07;3.50;;;25.30;59.30;;;;;;4909295;29;20041;-78
2022/06/17 20:41:44;;;;;;;5.47;3.28;;;25.10;59.60;;;;;;4908848;29;20021;-78
2022/06/17 20:44:16;;;;;;;5.65;3.50;;;25.00;59.90;;;;;;4908982;29;20076;-78
2022/06/17 20:52:35;;;;;;;5.45;3.28;;;24.70;60.40;;;;;;4907023;29;20036;-79
2022/06/17 20:55:01;;;;;;;4.70;3.28;;;24.60;60.80;;;;;;4906564;29;20053;-77
2022/06/17 21:00:21;;;;;;;7.15;4.03;;;24.40;61.40;;;;;;4906682;29;20036;-78
2022/06/17 21:02:47;;;;;;;6.70;4.05;;;24.40;61.40;;;;;;4906465;29;20036;-80
2022/06/17 21:05:17;;;;;;;5.10;3.15;;;24.30;61.90;;;;;;4907096;29;20044;-78
2022/06/17 21:07:45;;;;;;;6.78;3.13;;;24.30;61.30;;;;;;4906701;29;20045;-78
2022/06/17 21:10:19;;;;;;;5.65;2.80;;;24.30;61.80;;;;;;4907417;29;20508;-77
2022/06/17 21:12:46;;;;;;;4.15;2.20;;;24.20;62.20;;;;;;4906421;29;20037;-79
2022/06/17 21:15:15;;;;;;;4.13;2.67;;;24.00;62.20;;;;;;4906126;29;20059;-77
2022/06/17 21:17:41;;;;;;;3.47;2.53;;;23.90;62.30;;;;;;4906071;29;20093;-77
2022/06/17 21:20:08;;;;;;;3.35;2.38;;;23.80;62.70;;;;;;4906602;29;20171;-78
2022/06/17 21:22:37;;;;;;;3.97;2.65;;;23.70;62.80;;;;;;4906606;29;20048;-77
2022/06/17 21:25:09;;;;;;;3.88;2.53;;;23.60;62.30;;;;;;4906943;29;20044;-79
2022/06/17 21:27:35;;;;;;;5.03;2.90;;;23.60;62.70;;;;;;4908630;29;20124;-78
2022/06/17 21:30:01;;;;;;;5.47;2.90;;;23.60;62.80;;;;;;4907697;29;20293;-79
2022/06/17 21:32:27;;;;;;;4.82;3.08;;;23.50;63.60;;;;;;4908184;29;20047;-79
2022/06/17 21:34:52;;;;;;;5.97;3.15;;;23.60;63.70;;;;;;4906993;29;20032;-78
2022/06/17 21:37:18;;;;;;;6.00;2.92;;;23.50;63.80;;;;;;4908187;29;20043;-77
2022/06/17 21:39:44;;;;;;;5.40;2.42;;;23.40;64.10;;;;;;4907746;29;20214;-78
2022/06/17 21:42:10;;;;;;;3.17;2.28;;;23.40;64.30;;;;;;4907839;29;20218;-78
2022/06/17 21:44:35;;;;;;;4.43;2.10;;;23.30;64.30;;;;;;4908013;29;20028;-79
2022/06/17 21:47:01;;;;;;;3.38;2.22;;;23.30;64.00;;;;;;4907131;29;20078;-79
2022/06/17 21:49:27;;;;;;;3.47;2.17;;;23.20;64.60;;;;;;4908227;29;20033;-78
2022/06/17 21:51:59;;;;;;;3.97;2.10;;;23.10;65.00;;;;;;4890850;29;20072;-79
2022/06/17 21:54:36;;;;;;;5.93;2.47;;;23.10;64.80;;;;;;4908112;29;20040;-79
2022/06/17 21:57:03;;;;;;;3.10;2.20;;;23.10;65.00;;;;;;4905986;29;20048;-79
2022/06/17 21:59:41;;;;;;;3.30;2.38;;;23.10;64.50;;;;;;4907586;29;20040;-78
2022/06/17 22:02:12;;;;;;;3.33;2.30;;;23.10;64.70;;;;;;4907367;29;20100;-78
2022/06/17 22:04:38;;;;;;;3.55;2.10;;;23.00;65.10;;;;;;4907483;29;20036;-78
2022/06/17 22:07:05;;;;;;;4.43;2.20;;;22.90;65.30;;;;;;4907000;29;20255;-78
2022/06/17 22:09:35;;;;;;;3.75;2.20;;;22.90;65.80;;;;;;4907343;29;20029;-78
2022/06/17 22:12:04;;;;;;;3.72;2.50;;;22.80;66.20;;;;;;4906892;29;20322;-78
2022/06/17 22:14:35;;;;;;;5.43;2.25;;;22.60;65.80;;;;;;4907304;29;20055;-78
2022/06/17 22:17:05;;;;;;;6.60;2.60;;;22.50;65.60;;;;;;4905019;29;20271;-78
2022/06/17 22:19:32;;;;;;;4.72;2.30;;;22.50;65.00;;;;;;4907538;29;20028;-77
2022/06/17 22:21:59;;;;;;;4.13;2.60;;;22.60;66.00;;;;;;4906594;29;20096;-77